Terminal Aerodrome Forecast
Issued by NWS Grand Forks, ND

Home | Current Version | Previous Version | Graphics & Text | Print | Product List | Glossary On
Versions: 1 2 3 4 5 6 7 8 9 10 11 12 13 14 15
000
FTUS43 KFGF 021100
TAFFAR
TAF
KFAR 021120Z 0212/0312 16007KT P6SM FEW250
     FM021600 19016G23KT P6SM BKN250
     FM030000 19008KT P6SM VCTS SCT050CB OVC250
     FM030400 16008KT P6SM BKN250=

USA.gov is the U.S. government's official web portal to all federal, state and local government web resources and services.